createdAt,value
2018-02-21T00:01:58.919Z,65.08
2018-02-21T00:04:26.427Z,64.73
2018-02-21T00:06:53.940Z,65.51
2018-02-21T00:09:21.432Z,65.45
2018-02-21T00:11:48.952Z,65.25
2018-02-21T00:14:16.435Z,65.42
2018-02-21T00:16:43.969Z,64.99
2018-02-21T00:19:11.464Z,65.04
2018-02-21T00:21:39.012Z,64.89
2018-02-21T00:24:06.571Z,64.13
2018-02-21T00:26:34.084Z,61.97
2018-02-21T00:29:01.589Z,59.13
2018-02-21T00:31:29.148Z,59.74
2018-02-21T00:33:56.635Z,59.91
2018-02-21T00:36:24.267Z,59.75
2018-02-21T00:38:51.848Z,59.87
2018-02-21T00:41:19.367Z,61.16
2018-02-21T00:43:46.852Z,60.50
2018-02-21T00:46:14.529Z,60.59
2018-02-21T00:48:42.031Z,60.69
2018-02-21T00:51:09.549Z,60.15
2018-02-21T00:53:37.051Z,60.96
2018-02-21T00:56:05.559Z,59.49
2018-02-21T00:58:33.120Z,59.45
2018-02-21T01:01:00.627Z,59.53
2018-02-21T01:03:28.123Z,58.62
2018-02-21T01:05:55.672Z,58.33
2018-02-21T01:08:23.184Z,59.17
2018-02-21T01:10:50.719Z,59.16
2018-02-21T01:13:18.293Z,58.89
2018-02-21T01:15:45.807Z,59.07
2018-02-21T01:18:13.312Z,59.17
2018-02-21T01:20:40.855Z,59.74
2018-02-21T01:23:08.356Z,60.05
2018-02-21T01:25:35.862Z,60.58
2018-02-21T01:28:03.348Z,60.47
2018-02-21T01:30:30.908Z,60.63
2018-02-21T01:32:58.453Z,60.82
2018-02-21T01:35:25.964Z,60.78
2018-02-21T01:37:53.455Z,61.21
2018-02-21T01:40:20.987Z,61.30
2018-02-21T01:42:48.579Z,61.58
2018-02-21T01:45:16.068Z,61.18
2018-02-21T01:47:43.592Z,60.89
2018-02-21T01:50:11.179Z,60.90
2018-02-21T01:52:38.724Z,61.56
2018-02-21T01:55:06.210Z,61.48
2018-02-21T01:57:33.743Z,60.11
2018-02-21T02:00:01.295Z,60.69
2018-02-21T02:02:28.864Z,60.32
2018-02-21T02:04:56.384Z,59.89
2018-02-21T02:07:23.981Z,60.02
2018-02-21T02:09:51.473Z,60.27
2018-02-21T02:12:19.003Z,61.02
2018-02-21T02:14:46.500Z,61.35
2018-02-21T02:17:14.007Z,61.13
2018-02-21T02:19:41.511Z,61.26
2018-02-21T02:22:09.032Z,61.70
2018-02-21T02:24:36.536Z,61.63
2018-02-21T02:27:04.084Z,61.99
2018-02-21T02:29:31.575Z,62.39
2018-02-21T02:31:59.168Z,62.54
2018-02-21T02:34:26.696Z,62.71
2018-02-21T02:36:54.225Z,62.48
2018-02-21T02:39:33.623Z,61.25
2018-02-21T02:42:01.186Z,62.36
2018-02-21T02:44:28.764Z,60.56
2018-02-21T02:46:56.292Z,60.21
2018-02-21T02:49:23.784Z,60.34
2018-02-21T02:51:51.336Z,60.46
2018-02-21T02:54:18.848Z,60.29
2018-02-21T02:56:46.371Z,61.43
2018-02-21T02:59:13.864Z,61.63
2018-02-21T03:01:41.380Z,61.29
2018-02-21T03:04:08.879Z,61.27
2018-02-21T03:06:36.407Z,61.14
2018-02-21T03:09:03.899Z,61.40
2018-02-21T03:11:31.492Z,61.84
2018-02-21T03:13:58.983Z,61.58
2018-02-21T03:16:26.507Z,61.74
2018-02-21T03:18:54.015Z,62.15
2018-02-21T03:21:21.529Z,62.07
2018-02-21T03:23:49.092Z,62.18
2018-02-21T03:26:17.531Z,62.62
2018-02-21T03:28:45.094Z,62.31
2018-02-21T03:31:12.654Z,62.79
2018-02-21T03:33:40.171Z,64.03
2018-02-21T03:36:07.709Z,62.99
2018-02-21T03:38:35.222Z,62.88
2018-02-21T03:41:02.821Z,62.91
2018-02-21T03:43:30.385Z,62.44
2018-02-21T03:45:57.891Z,63.20
2018-02-21T03:48:25.436Z,63.49
2018-02-21T03:50:52.951Z,63.32
2018-02-21T03:53:21.540Z,63.43
2018-02-21T03:55:49.031Z,63.32
2018-02-21T03:58:16.568Z,63.43
2018-02-21T04:00:44.060Z,63.56
2018-02-21T04:03:11.584Z,64.05
2018-02-21T04:05:39.071Z,63.74
2018-02-21T04:08:06.587Z,62.16
2018-02-21T04:10:34.079Z,61.71
2018-02-21T04:13:01.616Z,61.47
2018-02-21T04:15:29.110Z,61.67
2018-02-21T04:17:56.624Z,61.86
2018-02-21T04:20:24.191Z,62.45
2018-02-21T04:22:51.723Z,62.76
2018-02-21T04:25:19.256Z,62.24
2018-02-21T04:27:47.792Z,63.03
2018-02-21T04:30:15.351Z,63.39
2018-02-21T04:32:42.883Z,63.35
2018-02-21T04:35:10.492Z,63.71
2018-02-21T04:37:38.015Z,63.43
2018-02-21T04:40:05.500Z,64.59
2018-02-21T04:42:33.052Z,64.57
2018-02-21T04:45:00.604Z,64.43
2018-02-21T04:47:28.111Z,64.28
2018-02-21T04:49:55.598Z,64.65
2018-02-21T04:52:23.131Z,65.06
2018-02-21T04:54:51.116Z,65.25
2018-02-21T04:57:25.180Z,66.34
2018-02-21T04:59:52.671Z,66.53
2018-02-21T05:02:20.164Z,67.39
2018-02-21T05:04:47.679Z,68.01
2018-02-21T05:07:15.199Z,68.57
2018-02-21T05:09:42.711Z,69.15
2018-02-21T05:12:10.325Z,70.18
2018-02-21T05:14:37.979Z,70.21
2018-02-21T05:17:05.542Z,71.08
2018-02-21T05:19:33.060Z,70.44
2018-02-21T05:22:00.555Z,68.45
2018-02-21T05:24:28.076Z,67.26
2018-02-21T05:26:55.568Z,65.75
2018-02-21T05:29:23.139Z,63.77
2018-02-21T05:31:50.643Z,63.35
2018-02-21T05:34:18.166Z,60.91
2018-02-21T05:36:45.676Z,61.05
2018-02-21T05:39:13.199Z,60.77
2018-02-21T05:41:40.696Z,60.47
2018-02-21T05:44:09.200Z,59.92
2018-02-21T05:46:36.696Z,60.17
2018-02-21T05:49:04.215Z,59.97
2018-02-21T05:51:31.779Z,60.89
2018-02-21T05:53:59.332Z,61.16
2018-02-21T05:56:26.823Z,62.06
2018-02-21T05:58:54.368Z,61.32
2018-02-21T06:01:21.886Z,60.78
2018-02-21T06:03:49.456Z,59.85
2018-02-21T06:06:17.044Z,60.66
2018-02-21T06:08:44.563Z,61.23
2018-02-21T06:11:12.161Z,61.59
2018-02-21T06:13:39.679Z,61.93
2018-02-21T06:16:07.284Z,59.57
2018-02-21T06:18:34.880Z,59.75
2018-02-21T06:21:02.366Z,59.95
2018-02-21T06:23:29.881Z,59.42
2018-02-21T06:25:57.383Z,58.62
2018-02-21T06:28:24.931Z,58.52
2018-02-21T06:30:52.424Z,58.09
2018-02-21T06:33:20.923Z,58.38
2018-02-21T06:35:48.478Z,58.47
2018-02-21T06:38:16.031Z,58.99
2018-02-21T06:40:43.547Z,59.14
2018-02-21T06:43:11.169Z,59.98
2018-02-21T06:45:38.691Z,60.38
2018-02-21T06:48:06.183Z,60.12
2018-02-21T06:50:33.711Z,61.25
2018-02-21T06:53:01.200Z,62.16
2018-02-21T06:55:28.716Z,63.21
2018-02-21T06:57:56.216Z,64.51
2018-02-21T07:00:23.751Z,64.79
2018-02-21T07:02:51.252Z,65.04
2018-02-21T07:05:18.771Z,64.95
2018-02-21T07:07:46.342Z,65.27
2018-02-21T07:10:13.861Z,66.29
2018-02-21T07:12:41.355Z,66.65
2018-02-21T07:15:08.876Z,67.67
2018-02-21T07:17:36.371Z,67.85
2018-02-21T07:20:03.888Z,66.95
2018-02-21T07:22:31.380Z,66.52
2018-02-21T07:24:58.947Z,66.48
2018-02-21T07:27:26.512Z,66.28
2018-02-21T07:29:54.048Z,65.96
2018-02-21T07:32:21.544Z,66.07
2018-02-21T07:34:49.055Z,66.69
2018-02-21T07:37:16.651Z,67.54
2018-02-21T07:39:44.200Z,67.72
2018-02-21T07:42:11.700Z,68.45
2018-02-21T07:44:39.219Z,69.03
2018-02-21T07:47:06.786Z,69.24
2018-02-21T07:49:34.313Z,69.12
2018-02-21T07:52:01.816Z,68.95
2018-02-21T07:54:29.364Z,69.03
2018-02-21T07:56:56.916Z,69.04
2018-02-21T07:59:24.519Z,68.56
2018-02-21T08:01:52.016Z,69.14
2018-02-21T08:04:19.580Z,69.28
2018-02-21T08:06:47.076Z,67.78
2018-02-21T08:09:14.592Z,66.53
2018-02-21T08:11:42.176Z,66.73
2018-02-21T08:14:09.664Z,66.09
2018-02-21T08:16:37.199Z,65.68
2018-02-21T08:19:04.765Z,65.83
2018-02-21T08:21:32.276Z,65.64
2018-02-21T08:23:59.768Z,65.03
2018-02-21T08:26:27.288Z,64.43
2018-02-21T08:28:54.775Z,64.69
2018-02-21T08:31:22.347Z,64.24
2018-02-21T08:33:49.908Z,64.04
2018-02-21T08:36:17.419Z,64.02
2018-02-21T08:38:44.907Z,63.81
2018-02-21T08:41:12.464Z,62.90
2018-02-21T08:43:40.024Z,63.28
2018-02-21T08:46:07.538Z,62.61
2018-02-21T08:48:35.033Z,62.83
2018-02-21T08:51:02.626Z,62.76
2018-02-21T08:53:30.247Z,63.41
2018-02-21T08:55:57.757Z,62.98
2018-02-21T08:58:25.244Z,63.53
2018-02-21T09:00:52.775Z,61.58
2018-02-21T09:03:20.263Z,60.01
2018-02-21T09:05:47.791Z,59.24
2018-02-21T09:08:15.330Z,58.89
2018-02-21T09:10:42.897Z,58.22
2018-02-21T09:13:10.403Z,57.29
2018-02-21T09:15:37.919Z,56.70
2018-02-21T09:18:05.416Z,56.53
2018-02-21T09:20:32.947Z,57.08
2018-02-21T09:23:00.462Z,56.29
2018-02-21T09:25:27.971Z,55.34
2018-02-21T09:27:55.472Z,55.95
2018-02-21T09:30:23.009Z,56.50
2018-02-21T09:32:50.510Z,57.31
2018-02-21T09:35:18.032Z,56.99
2018-02-21T09:37:45.519Z,56.67
2018-02-21T09:40:13.036Z,56.40
2018-02-21T09:42:40.528Z,55.41
2018-02-21T09:45:08.055Z,54.09
2018-02-21T09:47:35.543Z,53.05
2018-02-21T09:50:03.031Z,53.64
2018-02-21T09:52:30.601Z,54.24
2018-02-21T09:54:58.100Z,53.36
2018-02-21T09:57:25.752Z,53.39
2018-02-21T09:59:53.263Z,52.77
2018-02-21T10:02:20.828Z,54.16
2018-02-21T10:04:48.383Z,53.07
2018-02-21T10:07:15.891Z,52.46
2018-02-21T10:09:43.383Z,51.09
2018-02-21T10:12:11.880Z,50.43
2018-02-21T10:14:39.368Z,49.62
2018-02-21T10:17:06.896Z,49.53
2018-02-21T10:19:34.391Z,48.55
2018-02-21T10:22:01.908Z,47.76
2018-02-21T10:24:29.479Z,46.09
2018-02-21T10:26:57.010Z,46.05
2018-02-21T10:29:24.504Z,44.67
2018-02-21T10:31:52.048Z,43.80
2018-02-21T10:34:19.635Z,42.76
2018-02-21T10:36:47.167Z,44.13
2018-02-21T10:39:14.655Z,43.12
2018-02-21T10:41:42.182Z,46.30
2018-02-21T10:44:09.676Z,47.16
2018-02-21T10:46:37.199Z,47.53
2018-02-21T10:49:04.768Z,46.99
2018-02-21T10:51:32.279Z,47.82
2018-02-21T10:53:59.827Z,49.44
2018-02-21T10:56:28.332Z,49.87
2018-02-21T10:58:55.820Z,50.96
2018-02-21T11:01:25.864Z,51.62
2018-02-21T11:03:53.357Z,51.26
2018-02-21T11:06:20.928Z,51.48
2018-02-21T11:08:48.524Z,51.32
2018-02-21T11:11:16.043Z,50.89
2018-02-21T11:13:43.528Z,50.13
2018-02-21T11:16:11.053Z,49.33
2018-02-21T11:18:38.559Z,48.85
2018-02-21T11:21:06.083Z,49.76
2018-02-21T11:23:33.708Z,50.09
2018-02-21T11:26:01.144Z,52.16
2018-02-21T11:28:28.665Z,52.05
2018-02-21T11:30:56.154Z,51.41
2018-02-21T11:33:23.695Z,52.29
2018-02-21T11:35:51.191Z,53.08
2018-02-21T11:38:18.703Z,52.82
2018-02-21T11:40:46.192Z,49.33
2018-02-21T11:43:13.763Z,48.65
2018-02-21T11:45:41.403Z,50.36
2018-02-21T11:48:08.908Z,49.68
2018-02-21T11:50:36.401Z,51.67
2018-02-21T11:53:03.923Z,50.52
2018-02-21T11:55:31.466Z,49.35
2018-02-21T11:57:59.009Z,48.41
2018-02-21T12:00:26.569Z,49.31
2018-02-21T12:02:54.092Z,52.19
2018-02-21T12:05:21.687Z,53.36
2018-02-21T12:07:49.203Z,53.03
2018-02-21T12:10:16.836Z,50.43
2018-02-21T12:12:44.340Z,45.38
2018-02-21T12:15:11.843Z,43.33
2018-02-21T12:17:39.367Z,45.39
2018-02-21T12:20:06.863Z,46.46
2018-02-21T12:22:34.395Z,47.92
2018-02-21T12:25:01.887Z,46.45
2018-02-21T12:27:29.431Z,47.12
2018-02-21T12:29:56.975Z,47.78
2018-02-21T12:32:25.000Z,48.94
2018-02-21T12:34:52.510Z,48.00
2018-02-21T12:37:20.036Z,46.50
2018-02-21T12:39:47.531Z,47.19
2018-02-21T12:42:15.036Z,48.15
2018-02-21T12:44:42.524Z,46.91
2018-02-21T12:47:10.105Z,47.58
2018-02-21T12:49:37.607Z,45.07
2018-02-21T12:52:05.143Z,44.73
2018-02-21T12:54:32.680Z,43.15
2018-02-21T12:57:00.231Z,38.61
2018-02-21T12:59:27.800Z,37.18
2018-02-21T13:01:55.291Z,39.05
2018-02-21T13:04:22.799Z,42.60
2018-02-21T13:06:50.370Z,43.34
2018-02-21T13:09:17.929Z,44.26
2018-02-21T13:11:45.443Z,45.63
2018-02-21T13:14:12.991Z,45.21
2018-02-21T13:16:40.507Z,47.23
2018-02-21T13:19:08.020Z,47.41
2018-02-21T13:21:35.516Z,48.14
2018-02-21T13:24:03.080Z,48.57
2018-02-21T13:26:30.575Z,48.27
2018-02-21T13:28:58.092Z,47.83
2018-02-21T13:31:25.646Z,48.67
2018-02-21T13:33:53.192Z,48.51
2018-02-21T13:36:20.688Z,45.72
2018-02-21T13:38:48.236Z,43.93
2018-02-21T13:41:15.799Z,37.37
2018-02-21T13:43:43.323Z,36.85
2018-02-21T13:46:10.837Z,32.97
2018-02-21T13:48:38.412Z,33.65
2018-02-21T13:51:06.040Z,30.03
2018-02-21T13:53:33.595Z,29.47
2018-02-21T13:56:01.152Z,30.52
2018-02-21T13:58:28.676Z,32.20
2018-02-21T14:00:56.268Z,32.91
2018-02-21T14:03:23.799Z,31.16
2018-02-21T14:05:51.288Z,34.70
2018-02-21T14:08:18.853Z,38.93
2018-02-21T14:10:46.412Z,39.96
2018-02-21T14:13:13.929Z,40.84
2018-02-21T14:15:41.424Z,41.56
2018-02-21T14:18:09.912Z,44.27
2018-02-21T14:20:37.399Z,45.07
2018-02-21T14:23:04.927Z,42.17
2018-02-21T14:25:32.427Z,41.71
2018-02-21T14:28:00.048Z,37.91
2018-02-21T14:30:27.599Z,32.53
2018-02-21T14:32:55.096Z,33.51
2018-02-21T14:35:22.778Z,34.83
2018-02-21T14:37:50.252Z,38.83
2018-02-21T14:40:17.764Z,40.06
2018-02-21T14:42:45.312Z,41.85
2018-02-21T14:45:12.868Z,42.62
2018-02-21T14:47:40.427Z,43.08
2018-02-21T14:50:07.968Z,43.16
2018-02-21T14:52:35.544Z,41.44
2018-02-21T14:55:03.051Z,38.67
2018-02-21T14:57:30.547Z,37.94
2018-02-21T14:59:58.056Z,41.33
2018-02-21T15:02:25.548Z,42.38
2018-02-21T15:04:53.063Z,42.04
2018-02-21T15:07:20.563Z,39.15
2018-02-21T15:09:48.163Z,35.66
2018-02-21T15:12:15.717Z,35.07
2018-02-21T15:14:43.280Z,39.08
2018-02-21T15:17:10.851Z,41.05
2018-02-21T15:19:38.367Z,45.37
2018-02-21T15:22:05.960Z,44.97
2018-02-21T15:24:33.514Z,44.10
2018-02-21T15:27:01.081Z,45.03
2018-02-21T15:29:28.639Z,44.04
2018-02-21T15:31:56.168Z,41.33
2018-02-21T15:34:23.705Z,38.34
2018-02-21T15:36:51.203Z,37.02
2018-02-21T15:39:18.770Z,37.22
2018-02-21T15:41:46.264Z,38.38
2018-02-21T15:44:13.775Z,38.45
2018-02-21T15:46:41.264Z,41.07
2018-02-21T15:49:08.808Z,39.99
2018-02-21T15:51:36.366Z,39.40
2018-02-21T15:54:03.883Z,39.96
2018-02-21T15:56:31.497Z,40.37
2018-02-21T15:58:59.035Z,40.84
2018-02-21T16:01:26.595Z,41.38
2018-02-21T16:03:54.180Z,42.43
2018-02-21T16:06:21.728Z,42.25
2018-02-21T16:08:49.230Z,42.68
2018-02-21T16:11:16.754Z,42.68
2018-02-21T16:13:44.297Z,43.43
2018-02-21T16:16:11.795Z,46.21
2018-02-21T16:18:39.322Z,47.58
2018-02-21T16:21:06.839Z,48.16
2018-02-21T16:23:34.343Z,49.43
2018-02-21T16:26:01.856Z,50.04
2018-02-21T16:28:29.454Z,49.82
2018-02-21T16:30:57.035Z,49.75
2018-02-21T16:33:24.544Z,51.94
2018-02-21T16:35:52.100Z,51.62
2018-02-21T16:38:19.586Z,51.20
2018-02-21T16:40:47.094Z,51.46
2018-02-21T16:43:14.583Z,51.77
2018-02-21T16:45:42.168Z,51.69
2018-02-21T16:48:09.676Z,52.35
2018-02-21T16:50:37.183Z,52.71
2018-02-21T16:53:04.681Z,51.72
2018-02-21T16:55:32.214Z,52.04
2018-02-21T16:57:59.701Z,51.56
2018-02-21T17:00:27.330Z,52.82
2018-02-21T17:02:54.372Z,52.85
2018-02-21T17:05:21.883Z,53.43
2018-02-21T17:07:49.371Z,52.52
2018-02-21T17:10:16.943Z,52.08
2018-02-21T17:12:44.444Z,50.70
2018-02-21T17:15:11.973Z,49.98
2018-02-21T17:17:39.476Z,48.75
2018-02-21T17:20:06.988Z,48.88
2018-02-21T17:22:34.534Z,48.55
2018-02-21T17:25:02.046Z,48.58
2018-02-21T17:27:29.569Z,49.14
2018-02-21T17:29:57.080Z,48.22
2018-02-21T17:32:25.272Z,48.79
2018-02-21T17:34:52.785Z,50.57
2018-02-21T17:37:20.303Z,49.92
2018-02-21T17:39:47.869Z,49.73
2018-02-21T17:42:15.407Z,50.40
2018-02-21T17:44:42.901Z,50.50
2018-02-21T17:47:10.419Z,50.69
2018-02-21T17:49:37.908Z,50.30
2018-02-21T17:52:05.458Z,51.11
2018-02-21T17:54:33.024Z,50.73
2018-02-21T17:57:00.585Z,50.96
2018-02-21T17:59:28.139Z,51.20
2018-02-21T18:01:55.643Z,52.06
2018-02-21T18:04:23.155Z,52.64
2018-02-21T18:06:50.663Z,52.33
2018-02-21T18:09:18.168Z,52.64
2018-02-21T18:11:45.736Z,52.21
2018-02-21T18:14:13.232Z,52.63
2018-02-21T18:16:40.744Z,52.31
2018-02-21T18:19:08.236Z,52.81
2018-02-21T18:21:41.480Z,53.07
2018-02-21T18:24:08.963Z,53.23
2018-02-21T18:26:36.525Z,53.33
2018-02-21T18:29:04.028Z,53.61
2018-02-21T18:31:31.539Z,54.77
2018-02-21T18:33:59.028Z,53.03
2018-02-21T18:36:26.540Z,53.18
2018-02-21T18:38:54.043Z,53.38
2018-02-21T18:41:21.559Z,52.87
2018-02-21T18:43:49.135Z,52.58
2018-02-21T18:46:16.692Z,51.23
2018-02-21T18:48:44.252Z,51.69
2018-02-21T18:51:11.929Z,52.09
2018-02-21T18:53:39.432Z,53.30
2018-02-21T18:56:06.948Z,55.11
2018-02-21T18:58:34.492Z,56.08
2018-02-21T19:01:02.011Z,56.86
2018-02-21T19:03:29.504Z,57.27
2018-02-21T19:05:57.018Z,56.42
2018-02-21T19:08:24.521Z,56.68
2018-02-21T19:10:52.057Z,56.56
2018-02-21T19:13:19.578Z,56.08
2018-02-21T19:15:47.086Z,56.44
2018-02-21T19:18:14.657Z,56.03
2018-02-21T19:20:42.149Z,56.13
2018-02-21T19:23:09.682Z,55.80
2018-02-21T19:25:37.176Z,55.69
2018-02-21T19:28:04.687Z,55.85
2018-02-21T19:30:32.175Z,55.71
2018-02-21T19:32:59.815Z,55.84
2018-02-21T19:35:27.356Z,55.93
2018-02-21T19:37:54.871Z,55.86
2018-02-21T19:40:22.365Z,56.28
2018-02-21T19:42:49.877Z,57.19
2018-02-21T19:45:17.412Z,57.16
2018-02-21T19:47:44.925Z,56.90
2018-02-21T19:50:12.433Z,57.75
2018-02-21T19:52:39.948Z,57.76
2018-02-21T19:55:07.436Z,58.54
2018-02-21T19:57:34.951Z,59.09
2018-02-21T20:00:02.442Z,58.65
2018-02-21T20:02:29.955Z,58.00
2018-02-21T20:04:57.443Z,58.71
2018-02-21T20:07:24.951Z,58.66
2018-02-21T20:09:52.513Z,58.87
2018-02-21T20:12:20.096Z,58.76
2018-02-21T20:14:47.588Z,59.48
2018-02-21T20:17:15.188Z,59.69
2018-02-21T20:19:42.685Z,60.00
2018-02-21T20:22:10.202Z,60.38
2018-02-21T20:24:37.700Z,60.02
2018-02-21T20:27:05.217Z,60.32
2018-02-21T20:29:32.716Z,60.42
2018-02-21T20:32:00.280Z,61.40
2018-02-21T20:34:27.775Z,61.46
2018-02-21T20:36:55.487Z,61.35
2018-02-21T20:39:23.007Z,61.43
2018-02-21T20:41:50.523Z,61.90
2018-02-21T20:44:18.019Z,61.68
2018-02-21T20:46:45.543Z,62.54
2018-02-21T20:49:13.032Z,62.46
2018-02-21T20:51:40.523Z,62.84
2018-02-21T20:54:08.057Z,63.37
2018-02-21T20:56:35.551Z,64.42
2018-02-21T20:59:03.698Z,64.11
2018-02-21T21:01:31.241Z,64.40
2018-02-21T21:03:58.768Z,64.66
2018-02-21T21:06:26.479Z,65.52
2018-02-21T21:08:53.995Z,65.97
2018-02-21T21:11:21.607Z,66.45
2018-02-21T21:13:49.125Z,66.77
2018-02-21T21:16:16.711Z,66.51
2018-02-21T21:18:44.232Z,66.29
2018-02-21T21:21:11.929Z,66.38
2018-02-21T21:23:39.444Z,66.44
2018-02-21T21:26:06.945Z,66.81
2018-02-21T21:28:34.467Z,67.17
2018-02-21T21:31:01.970Z,67.42
2018-02-21T21:33:29.632Z,68.00
2018-02-21T21:35:57.130Z,67.95
2018-02-21T21:38:24.658Z,67.81
2018-02-21T21:40:52.155Z,68.40
2018-02-21T21:43:19.677Z,68.23
2018-02-21T21:45:47.172Z,68.35
2018-02-21T21:48:14.711Z,68.59
2018-02-21T21:50:42.218Z,68.68
2018-02-21T21:53:09.736Z,68.64
2018-02-21T21:55:37.232Z,68.47
2018-02-21T21:58:04.797Z,68.74
2018-02-21T22:00:32.300Z,69.36
2018-02-21T22:02:59.825Z,69.39
2018-02-21T22:05:27.328Z,69.58
2018-02-21T22:07:54.946Z,69.66
2018-02-21T22:10:22.444Z,69.58
2018-02-21T22:12:49.967Z,69.68
2018-02-21T22:15:17.764Z,69.34
2018-02-21T22:17:45.289Z,69.73
2018-02-21T22:20:12.788Z,69.82
2018-02-21T22:22:40.308Z,69.96
2018-02-21T22:25:07.802Z,69.31
2018-02-21T22:27:35.301Z,69.05
2018-02-21T22:30:02.824Z,69.07
2018-02-21T22:32:30.364Z,69.81
2018-02-21T22:34:57.964Z,70.13
2018-02-21T22:37:25.477Z,70.96
2018-02-21T22:39:52.992Z,70.78
2018-02-21T22:42:20.483Z,70.87
2018-02-21T22:44:48.026Z,70.99
2018-02-21T22:47:15.528Z,70.89
2018-02-21T22:49:43.043Z,70.98
2018-02-21T22:52:10.577Z,71.27
2018-02-21T22:54:38.119Z,71.04
2018-02-21T22:57:05.619Z,70.90
2018-02-21T22:59:33.135Z,71.46
2018-02-21T23:02:00.635Z,71.54
2018-02-21T23:04:28.288Z,72.36
2018-02-21T23:06:55.784Z,71.92
2018-02-21T23:09:23.301Z,72.02
2018-02-21T23:11:50.800Z,71.91
2018-02-21T23:14:18.325Z,72.16
2018-02-21T23:16:45.827Z,72.33
2018-02-21T23:19:13.352Z,72.11
2018-02-21T23:21:40.939Z,72.62
2018-02-21T23:24:08.495Z,72.56
2018-02-21T23:26:35.996Z,73.39
2018-02-21T23:29:03.611Z,73.28
2018-02-21T23:31:31.127Z,73.75
2018-02-21T23:33:58.741Z,73.17
2018-02-21T23:36:26.281Z,72.25
2018-02-21T23:38:53.835Z,71.97
2018-02-21T23:41:21.326Z,71.45
2018-02-21T23:43:48.982Z,71.42
2018-02-21T23:46:16.484Z,71.71
2018-02-21T23:48:44.003Z,71.54
2018-02-21T23:51:11.531Z,71.52
2018-02-21T23:53:39.157Z,71.40
2018-02-21T23:56:06.649Z,72.10
2018-02-21T23:58:34.184Z,72.07
